No particular awareness of the weather is required.    There are no Weather-warnings


Meteo18 Weather Cam more information Meteo18 Weather Cam


Thunder radar more information blitzortung!


Rain radar more information rain snow radar


Visit our other weather sites:

Template documentation
and downloads

And another site



Weather Underground History page Text

Daily Summary for July 19, 2017 Units:  Both    English   Metric
« Previous Day
Next Day »
Daily Weekly Monthly Yearly Custom
  High: Low: Average:
Temperature: 86.5 °F /  30.3 °C 67.3 °F /  19.6 °C 75.7 °F /  24.3 °C
Dew Point: 66.6 °F /  19.2 °C 56.1 °F /  13.4 °C 60.8 °F /  16 °C
Humidity: 87 % 41 % 61 %
Wind Speed: 15 mph /  24.1 km/h - 3.3 mph /  5.3 km/h
Wind Gust: 21 mph /  33.8 km/h - -
Wind:- - SW
Pressure: 29.9 in /  1013.4 hPa 29.9 in /  1011.1 hPa -
Precipitation: 0.01 in /  0.3 mm    
Historical Graphs
 
 
Tabular Data for July 19, 2017
Time Temperature Dew Point Pressure Wind Wind Speed Wind Gust Humidity Rainfall Rate (Hourly)
00:02 75.7 °F /  24.3 °C 59.9 °F /  15.5 °C 29.9 in /  1011.1 hPa SSW 1 mph /  1.6 km/h 2 mph /  3.2 km/h 58 % 0 in /  0.0 mm
00:12 75.4 °F /  24.1 °C 60.1 °F /  15.6 °C 29.9 in /  1011.1 hPa SW 1 mph /  1.6 km/h 2 mph /  3.2 km/h 59 % 0 in /  0.0 mm
00:17 75.4 °F /  24.1 °C 60.1 °F /  15.6 °C 29.9 in /  1011.1 hPa SSW 1 mph /  1.6 km/h 2 mph /  3.2 km/h 59 % 0 in /  0.0 mm
00:22 75.4 °F /  24.1 °C 59.5 °F /  15.3 °C 29.9 in /  1011.4 hPa Calm   2 mph /  3.2 km/h 58 % 0 in /  0.0 mm
00:27 75 °F /  23.9 °C 60.3 °F /  15.7 °C 29.9 in /  1011.4 hPa Calm   2 mph /  3.2 km/h 60 % 0 in /  0.0 mm
00:32 74.7 °F /  23.7 °C 59.9 °F /  15.5 °C 29.9 in /  1011.1 hPa Calm   2 mph /  3.2 km/h 60 % 0 in /  0.0 mm
00:42 74.7 °F /  23.7 °C 59.9 °F /  15.5 °C 29.9 in /  1011.1 hPa Calm   2 mph /  3.2 km/h 60 % 0 in /  0.0 mm
00:47 74.7 °F /  23.7 °C 59.9 °F /  15.5 °C 29.9 in /  1011.1 hPa Calm   1 mph /  1.6 km/h 60 % 0 in /  0.0 mm
00:52 74.5 °F /  23.6 °C 60.1 °F /  15.6 °C 29.9 in /  1011.4 hPa Calm   1 mph /  1.6 km/h 61 % 0 in /  0.0 mm
00:57 73.8 °F /  23.2 °C 59.9 °F /  15.5 °C 29.9 in /  1011.4 hPa Calm   1 mph /  1.6 km/h 62 % 0 in /  0.0 mm
01:02 73.2 °F /  22.9 °C 59.9 °F /  15.5 °C 29.9 in /  1011.1 hPa Calm   1 mph /  1.6 km/h 63 % 0 in /  0.0 mm
01:07 73.6 °F /  23.1 °C 60.3 °F /  15.7 °C 29.9 in /  1011.1 hPa Calm     63 % 0 in /  0.0 mm
01:12 73.4 °F /  23.0 °C 60.1 °F /  15.6 °C 29.9 in /  1011.4 hPa Calm   1 mph /  1.6 km/h 63 % 0 in /  0.0 mm
01:17 73 °F /  22.8 °C 60.6 °F /  15.9 °C 29.9 in /  1011.4 hPa Calm   1 mph /  1.6 km/h 65 % 0 in /  0.0 mm
01:22 72.1 °F /  22.3 °C 60.1 °F /  15.6 °C 29.9 in /  1012.1 hPa WSW 3 mph /  4.8 km/h 3 mph /  4.8 km/h 66 % 0 in /  0.0 mm
01:27 73 °F /  22.8 °C 61 °F /  16.1 °C 29.9 in /  1012.1 hPa SW 7 mph /  11.3 km/h 7 mph /  11.3 km/h 66 % 0 in /  0.0 mm
01:32 74.7 °F /  23.7 °C 61.2 °F /  16.2 °C 29.9 in /  1012.1 hPa SW 4 mph /  6.4 km/h 6 mph /  9.7 km/h 63 % 0 in /  0.0 mm
01:37 75.6 °F /  24.2 °C 61.2 °F /  16.2 °C 29.9 in /  1012.1 hPa WSW 4 mph /  6.4 km/h 7 mph /  11.3 km/h 61 % 0 in /  0.0 mm
01:42 76.1 °F /  24.5 °C 61.2 °F /  16.2 °C 29.9 in /  1012.1 hPa SW 4 mph /  6.4 km/h 7 mph /  11.3 km/h 60 % 0 in /  0.0 mm
01:47 75.9 °F /  24.4 °C 61 °F /  16.1 °C 29.9 in /  1012.1 hPa SSW 4 mph /  6.4 km/h 7 mph /  11.3 km/h 60 % 0 in /  0.0 mm
01:52 75.7 °F /  24.3 °C 61.3 °F /  16.3 °C 29.9 in /  1012.1 hPa SW 3 mph /  4.8 km/h 7 mph /  11.3 km/h 61 % 0 in /  0.0 mm
01:57 75.7 °F /  24.3 °C 60.8 °F /  16.0 °C 29.9 in /  1012.1 hPa SSW 4 mph /  6.4 km/h 10 mph /  16.1 km/h 60 % 0 in /  0.0 mm
02:02 75.2 °F /  24.0 °C 61.3 °F /  16.3 °C 29.9 in /  1012.1 hPa South 1 mph /  1.6 km/h 10 mph /  16.1 km/h 62 % 0 in /  0.0 mm
02:12 74.1 °F /  23.4 °C 61.2 °F /  16.2 °C 29.9 in /  1012.1 hPa SE 1 mph /  1.6 km/h 5 mph /  8.0 km/h 64 % 0 in /  0.0 mm
02:17 73.8 °F /  23.2 °C 61.3 °F /  16.3 °C 29.9 in /  1012.1 hPa Calm   3 mph /  4.8 km/h 65 % 0 in /  0.0 mm
02:22 73.2 °F /  22.9 °C 60.8 °F /  16.0 °C 29.9 in /  1012.1 hPa ESE 1 mph /  1.6 km/h 3 mph /  4.8 km/h 65 % 0 in /  0.0 mm
02:27 73 °F /  22.8 °C 60.6 °F /  15.9 °C 29.9 in /  1012.1 hPa Calm   3 mph /  4.8 km/h 65 % 0 in /  0.0 mm
02:32 72.9 °F /  22.7 °C 60.4 °F /  15.8 °C 29.9 in /  1012.1 hPa South 2 mph /  3.2 km/h 3 mph /  4.8 km/h 65 % 0 in /  0.0 mm
02:37 73.2 °F /  22.9 °C 60.3 °F /  15.7 °C 29.9 in /  1012.1 hPa Calm   4 mph /  6.4 km/h 64 % 0 in /  0.0 mm
02:42 73.2 °F /  22.9 °C 60.3 °F /  15.7 °C 29.9 in /  1012.1 hPa SSE 1 mph /  1.6 km/h 4 mph /  6.4 km/h 64 % 0 in /  0.0 mm
02:47 73 °F /  22.8 °C 60.1 °F /  15.6 °C 29.9 in /  1012.1 hPa Calm   4 mph /  6.4 km/h 64 % 0 in /  0.0 mm
02:52 72.7 °F /  22.6 °C 59.7 °F /  15.4 °C 29.9 in /  1012.4 hPa SSW 1 mph /  1.6 km/h 4 mph /  6.4 km/h 64 % 0 in /  0.0 mm
02:57 72.7 °F /  22.6 °C 59.7 °F /  15.4 °C 29.9 in /  1012.1 hPa South 4 mph /  6.4 km/h 4 mph /  6.4 km/h 64 % 0 in /  0.0 mm
03:02 72.7 °F /  22.6 °C 59.4 °F /  15.2 °C 29.9 in /  1012.1 hPa SSW 3 mph /  4.8 km/h 4 mph /  6.4 km/h 63 % 0 in /  0.0 mm
03:12 71.8 °F /  22.1 °C 59 °F /  15.0 °C 29.9 in /  1012.1 hPa SSW 2 mph /  3.2 km/h 5 mph /  8.0 km/h 64 % 0 in /  0.0 mm
03:17 71.4 °F /  21.9 °C 59 °F /  15.0 °C 29.9 in /  1012.4 hPa SSW 1 mph /  1.6 km/h 5 mph /  8.0 km/h 65 % 0 in /  0.0 mm
03:22 71.1 °F /  21.7 °C 59.2 °F /  15.1 °C 29.9 in /  1012.4 hPa South 2 mph /  3.2 km/h 4 mph /  6.4 km/h 66 % 0 in /  0.0 mm
03:27 70.9 °F /  21.6 °C 59 °F /  15.0 °C 29.9 in /  1012.4 hPa South 2 mph /  3.2 km/h 4 mph /  6.4 km/h 66 % 0 in /  0.0 mm
03:32 70.9 °F /  21.6 °C 58.5 °F /  14.7 °C 29.9 in /  1012.4 hPa SSW 1 mph /  1.6 km/h 4 mph /  6.4 km/h 65 % 0 in /  0.0 mm
03:37 70.5 °F /  21.4 °C 58.6 °F /  14.8 °C 29.9 in /  1012.4 hPa SW 2 mph /  3.2 km/h 3 mph /  4.8 km/h 66 % 0 in /  0.0 mm
03:42 70.5 °F /  21.4 °C 58.1 °F /  14.5 °C 29.9 in /  1012.4 hPa SW 3 mph /  4.8 km/h 3 mph /  4.8 km/h 65 % 0 in /  0.0 mm
03:47 70.7 °F /  21.5 °C 58.3 °F /  14.6 °C 29.9 in /  1012.1 hPa SSW 1 mph /  1.6 km/h 4 mph /  6.4 km/h 65 % 0 in /  0.0 mm
03:52 70.9 °F /  21.6 °C 58.1 °F /  14.5 °C 29.9 in /  1012.1 hPa SSW 1 mph /  1.6 km/h 4 mph /  6.4 km/h 64 % 0 in /  0.0 mm
03:57 71.1 °F /  21.7 °C 58.3 °F /  14.6 °C 29.9 in /  1012.1 hPa SSE 1 mph /  1.6 km/h 4 mph /  6.4 km/h 64 % 0 in /  0.0 mm
04:02 70.7 °F /  21.5 °C 58.3 °F /  14.6 °C 29.9 in /  1012.1 hPa SSW 1 mph /  1.6 km/h 4 mph /  6.4 km/h 65 % 0 in /  0.0 mm
04:07 70.5 °F /  21.4 °C 58.1 °F /  14.5 °C 29.9 in /  1012.1 hPa Calm   2 mph /  3.2 km/h 65 % 0 in /  0.0 mm
04:12 70.5 °F /  21.4 °C 58.1 °F /  14.5 °C 29.9 in /  1011.7 hPa SSW 1 mph /  1.6 km/h 2 mph /  3.2 km/h 65 % 0 in /  0.0 mm
04:17 70.5 °F /  21.4 °C 58.1 °F /  14.5 °C 29.9 in /  1011.7 hPa Calm   2 mph /  3.2 km/h 65 % 0 in /  0.0 mm
04:22 70.5 °F /  21.4 °C 58.1 °F /  14.5 °C 29.9 in /  1011.7 hPa Calm   2 mph /  3.2 km/h 65 % 0 in /  0.0 mm
04:27 70.3 °F /  21.3 °C 58.1 °F /  14.5 °C 29.9 in /  1011.7 hPa Calm   2 mph /  3.2 km/h 65 % 0 in /  0.0 mm
04:32 70.3 °F /  21.3 °C 58.1 °F /  14.5 °C 29.9 in /  1011.7 hPa Calm   2 mph /  3.2 km/h 65 % 0 in /  0.0 mm
04:37 70.2 °F /  21.2 °C 57.9 °F /  14.4 °C 29.9 in /  1011.7 hPa Calm   2 mph /  3.2 km/h 65 % 0 in /  0.0 mm
04:42 70.2 °F /  21.2 °C 58.3 °F /  14.6 °C 29.9 in /  1012.1 hPa Calm   2 mph /  3.2 km/h 66 % 0 in /  0.0 mm
04:47 70.2 °F /  21.2 °C 57.9 °F /  14.4 °C 29.9 in /  1011.7 hPa SE 1 mph /  1.6 km/h   65 % 0 in /  0.0 mm
04:52 70 °F /  21.1 °C 57.7 °F /  14.3 °C 29.9 in /  1012.1 hPa Calm     65 % 0 in /  0.0 mm
05:02 69.4 °F /  20.8 °C 57.6 °F /  14.2 °C 29.9 in /  1012.1 hPa Calm   2 mph /  3.2 km/h 66 % 0 in /  0.0 mm
05:12 69.3 °F /  20.7 °C 57.9 °F /  14.4 °C 29.9 in /  1012.1 hPa Calm   2 mph /  3.2 km/h 67 % 0 in /  0.0 mm
05:17 69.1 °F /  20.6 °C 57.7 °F /  14.3 °C 29.9 in /  1011.7 hPa Calm     67 % 0 in /  0.0 mm
05:22 68.9 °F /  20.5 °C 57.6 °F /  14.2 °C 29.9 in /  1011.7 hPa Calm     67 % 0 in /  0.0 mm
05:32 68.5 °F /  20.3 °C 57.6 °F /  14.2 °C 29.9 in /  1011.7 hPa Calm     68 % 0 in /  0.0 mm
05:37 68.4 °F /  20.2 °C 57.7 °F /  14.3 °C 29.9 in /  1011.7 hPa Calm     69 % 0 in /  0.0 mm
05:42 68.2 °F /  20.1 °C 57.6 °F /  14.2 °C 29.9 in /  1012.1 hPa Calm     69 % 0 in /  0.0 mm
05:52 67.3 °F /  19.6 °C 57.9 °F /  14.4 °C 29.9 in /  1012.4 hPa SSW 2 mph /  3.2 km/h   72 % 0 in /  0.0 mm
05:57 67.5 °F /  19.7 °C 57.4 °F /  14.1 °C 29.9 in /  1012.4 hPa SW 3 mph /  4.8 km/h 3 mph /  4.8 km/h 70 % 0 in /  0.0 mm
06:02 68 °F /  20.0 °C 57.4 °F /  14.1 °C 29.9 in /  1012.4 hPa SSW 2 mph /  3.2 km/h 3 mph /  4.8 km/h 69 % 0 in /  0.0 mm
06:12 68.7 °F /  20.4 °C 57.7 °F /  14.3 °C 29.9 in /  1012.4 hPa SSW 3 mph /  4.8 km/h 5 mph /  8.0 km/h 68 % 0 in /  0.0 mm
06:17 68.5 °F /  20.3 °C 57.6 °F /  14.2 °C 29.9 in /  1012.1 hPa Calm   6 mph /  9.7 km/h 68 % 0 in /  0.0 mm
06:22 68.7 °F /  20.4 °C 57.7 °F /  14.3 °C 29.9 in /  1012.1 hPa Calm   6 mph /  9.7 km/h 68 % 0 in /  0.0 mm
06:27 68.5 °F /  20.3 °C 57.9 °F /  14.4 °C 29.9 in /  1012.4 hPa South 1 mph /  1.6 km/h 6 mph /  9.7 km/h 69 % 0 in /  0.0 mm
06:32 68.5 °F /  20.3 °C 57.9 °F /  14.4 °C 29.9 in /  1012.4 hPa SSW 1 mph /  1.6 km/h 6 mph /  9.7 km/h 69 % 0 in /  0.0 mm
06:37 68.5 °F /  20.3 °C 57.9 °F /  14.4 °C 29.9 in /  1012.4 hPa Calm   4 mph /  6.4 km/h 69 % 0 in /  0.0 mm
06:42 68.5 °F /  20.3 °C 57.9 °F /  14.4 °C 29.9 in /  1012.8 hPa WSW 1 mph /  1.6 km/h 4 mph /  6.4 km/h 69 % 0 in /  0.0 mm
06:52 68.9 °F /  20.5 °C 57.6 °F /  14.2 °C 29.9 in /  1012.4 hPa SSE 2 mph /  3.2 km/h 7 mph /  11.3 km/h 67 % 0 in /  0.0 mm
06:57 68.9 °F /  20.5 °C 57.6 °F /  14.2 °C 29.9 in /  1012.1 hPa ESE 1 mph /  1.6 km/h 7 mph /  11.3 km/h 67 % 0 in /  0.0 mm
07:02 68.9 °F /  20.5 °C 57.6 °F /  14.2 °C 29.9 in /  1012.1 hPa ESE 3 mph /  4.8 km/h 7 mph /  11.3 km/h 67 % 0 in /  0.0 mm
07:12 69.3 °F /  20.7 °C 57.4 °F /  14.1 °C 29.9 in /  1012.1 hPa SSE 2 mph /  3.2 km/h 6 mph /  9.7 km/h 66 % 0 in /  0.0 mm
07:17 69.4 °F /  20.8 °C 57.2 °F /  14.0 °C 29.9 in /  1012.1 hPa South 1 mph /  1.6 km/h 6 mph /  9.7 km/h 65 % 0 in /  0.0 mm
07:22 69.6 °F /  20.9 °C 56.8 °F /  13.8 °C 29.9 in /  1011.7 hPa Calm   6 mph /  9.7 km/h 64 % 0 in /  0.0 mm
07:32 70.2 °F /  21.2 °C 57 °F /  13.9 °C 29.9 in /  1012.1 hPa SSW 2 mph /  3.2 km/h 5 mph /  8.0 km/h 63 % 0 in /  0.0 mm
07:42 70.7 °F /  21.5 °C 57 °F /  13.9 °C 29.9 in /  1012.1 hPa WSW 1 mph /  1.6 km/h 7 mph /  11.3 km/h 62 % 0 in /  0.0 mm
07:47 71.1 °F /  21.7 °C 56.8 °F /  13.8 °C 29.9 in /  1012.1 hPa SW 5 mph /  8.0 km/h 7 mph /  11.3 km/h 61 % 0 in /  0.0 mm
07:52 71.2 °F /  21.8 °C 56.1 °F /  13.4 °C 29.9 in /  1012.1 hPa SW 5 mph /  8.0 km/h 7 mph /  11.3 km/h 59 % 0 in /  0.0 mm
07:57 71.2 °F /  21.8 °C 57 °F /  13.9 °C 29.9 in /  1012.1 hPa SW 4 mph /  6.4 km/h 8 mph /  12.9 km/h 61 % 0 in /  0.0 mm
08:02 71.1 °F /  21.7 °C 56.8 °F /  13.8 °C 29.9 in /  1012.1 hPa SSE 2 mph /  3.2 km/h 8 mph /  12.9 km/h 61 % 0 in /  0.0 mm
08:12 71.2 °F /  21.8 °C 57.6 °F /  14.2 °C 29.9 in /  1012.4 hPa SSW 2 mph /  3.2 km/h 8 mph /  12.9 km/h 62 % 0 in /  0.0 mm
08:22 72 °F /  22.2 °C 57.4 °F /  14.1 °C 29.9 in /  1012.4 hPa SSW 2 mph /  3.2 km/h 6 mph /  9.7 km/h 60 % 0 in /  0.0 mm
08:32 73.6 °F /  23.1 °C 58.3 °F /  14.6 °C 29.9 in /  1012.1 hPa Calm   6 mph /  9.7 km/h 59 % 0 in /  0.0 mm
08:37 74.7 °F /  23.7 °C 57.9 °F /  14.4 °C 29.9 in /  1012.1 hPa Calm   3 mph /  4.8 km/h 56 % 0 in /  0.0 mm
08:42 75 °F /  23.9 °C 57.7 °F /  14.3 °C 29.9 in /  1012.1 hPa Calm   3 mph /  4.8 km/h 55 % 0 in /  0.0 mm
08:52 75.7 °F /  24.3 °C 57.9 °F /  14.4 °C 29.9 in /  1011.7 hPa Calm   2 mph /  3.2 km/h 54 % 0 in /  0.0 mm
09:02 76.3 °F /  24.6 °C 57.4 °F /  14.1 °C 29.9 in /  1011.7 hPa Calm   4 mph /  6.4 km/h 52 % 0 in /  0.0 mm
09:12 77.7 °F /  25.4 °C 58.1 °F /  14.5 °C 29.9 in /  1011.7 hPa SSW 2 mph /  3.2 km/h 5 mph /  8.0 km/h 51 % 0 in /  0.0 mm
09:17 77.7 °F /  25.4 °C 58.6 °F /  14.8 °C 29.9 in /  1012.1 hPa ESE 2 mph /  3.2 km/h 5 mph /  8.0 km/h 52 % 0 in /  0.0 mm
09:22 78.1 °F /  25.6 °C 58.5 °F /  14.7 °C 29.9 in /  1011.7 hPa SE 3 mph /  4.8 km/h 5 mph /  8.0 km/h 51 % 0 in /  0.0 mm
09:27 78.8 °F /  26.0 °C 58.6 °F /  14.8 °C 29.9 in /  1012.1 hPa SSW 1 mph /  1.6 km/h 6 mph /  9.7 km/h 50 % 0 in /  0.0 mm
09:32 79.2 °F /  26.2 °C 58.3 °F /  14.6 °C 29.9 in /  1012.1 hPa South 2 mph /  3.2 km/h 6 mph /  9.7 km/h 49 % 0 in /  0.0 mm
09:42 79.3 °F /  26.3 °C 59 °F /  15.0 °C 29.9 in /  1012.1 hPa SSE 6 mph /  9.7 km/h 6 mph /  9.7 km/h 50 % 0 in /  0.0 mm
09:47 80.2 °F /  26.8 °C 58.1 °F /  14.5 °C 29.9 in /  1012.1 hPa East 3 mph /  4.8 km/h 7 mph /  11.3 km/h 47 % 0 in /  0.0 mm
09:52 81.3 °F /  27.4 °C 57.9 °F /  14.4 °C 29.9 in /  1012.1 hPa SW 4 mph /  6.4 km/h 7 mph /  11.3 km/h 45 % 0 in /  0.0 mm
09:57 81.7 °F /  27.6 °C 58.3 °F /  14.6 °C 29.9 in /  1012.1 hPa SW 7 mph /  11.3 km/h 10 mph /  16.1 km/h 45 % 0 in /  0.0 mm
10:02 81.7 °F /  27.6 °C 56.3 °F /  13.5 °C 29.9 in /  1012.4 hPa South 4 mph /  6.4 km/h 10 mph /  16.1 km/h 42 % 0 in /  0.0 mm
10:12 81.7 °F /  27.6 °C 57.6 °F /  14.2 °C 29.9 in /  1012.4 hPa South 3 mph /  4.8 km/h 11 mph /  17.7 km/h 44 % 0 in /  0.0 mm
10:17 81.7 °F /  27.6 °C 57.6 °F /  14.2 °C 29.9 in /  1012.4 hPa SSE 7 mph /  11.3 km/h 13 mph /  20.9 km/h 44 % 0 in /  0.0 mm
10:22 82 °F /  27.8 °C 56.7 °F /  13.7 °C 29.9 in /  1012.4 hPa SSW 15 mph /  24.1 km/h 15 mph /  24.1 km/h 42 % 0 in /  0.0 mm
10:32 82.6 °F /  28.1 °C 56.5 °F /  13.6 °C 29.9 in /  1012.1 hPa South 7 mph /  11.3 km/h 16 mph /  25.7 km/h 41 % 0 in /  0.0 mm
10:37 82.8 °F /  28.2 °C 56.7 °F /  13.7 °C 29.9 in /  1012.1 hPa SW 15 mph /  24.1 km/h 16 mph /  25.7 km/h 41 % 0 in /  0.0 mm
10:42 82.4 °F /  28.0 °C 56.3 °F /  13.5 °C 29.9 in /  1012.4 hPa SSW 10 mph /  16.1 km/h 16 mph /  25.7 km/h 41 % 0 in /  0.0 mm
10:47 82.6 °F /  28.1 °C 57.7 °F /  14.3 °C 29.9 in /  1012.4 hPa SW 11 mph /  17.7 km/h 18 mph /  29.0 km/h 43 % 0 in /  0.0 mm
10:52 81.9 °F /  27.7 °C 56.5 °F /  13.6 °C 29.9 in /  1012.1 hPa SSW 8 mph /  12.9 km/h 18 mph /  29.0 km/h 42 % 0 in /  0.0 mm
10:57 81.5 °F /  27.5 °C 56.8 °F /  13.8 °C 29.9 in /  1012.4 hPa SSW 8 mph /  12.9 km/h 21 mph /  33.8 km/h 43 % 0 in /  0.0 mm
11:02 81.3 °F /  27.4 °C 56.7 °F /  13.7 °C 29.9 in /  1012.4 hPa West 6 mph /  9.7 km/h 21 mph /  33.8 km/h 43 % 0 in /  0.0 mm
11:07 81.7 °F /  27.6 °C 57.6 °F /  14.2 °C 29.9 in /  1012.4 hPa WSW 11 mph /  17.7 km/h 21 mph /  33.8 km/h 44 % 0 in /  0.0 mm
11:17 80.8 °F /  27.1 °C 57.4 °F /  14.1 °C 29.9 in /  1012.4 hPa SW 10 mph /  16.1 km/h 18 mph /  29.0 km/h 45 % 0 in /  0.0 mm
11:22 80.2 °F /  26.8 °C 57.6 °F /  14.2 °C 29.9 in /  1012.8 hPa WSW 6 mph /  9.7 km/h 18 mph /  29.0 km/h 46 % 0 in /  0.0 mm
11:27 80.4 °F /  26.9 °C 57.7 °F /  14.3 °C 29.9 in /  1012.8 hPa SW 4 mph /  6.4 km/h 18 mph /  29.0 km/h 46 % 0 in /  0.0 mm
11:32 81 °F /  27.2 °C 57.6 °F /  14.2 °C 29.9 in /  1012.8 hPa SW 15 mph /  24.1 km/h 18 mph /  29.0 km/h 45 % 0 in /  0.0 mm
11:37 81.1 °F /  27.3 °C 58.5 °F /  14.7 °C 29.9 in /  1012.8 hPa SSE 5 mph /  8.0 km/h 16 mph /  25.7 km/h 46 % 0 in /  0.0 mm
11:42 80.8 °F /  27.1 °C 56.8 °F /  13.8 °C 29.9 in /  1012.8 hPa WSW 9 mph /  14.5 km/h 16 mph /  25.7 km/h 44 % 0 in /  0.0 mm
11:47 80.1 °F /  26.7 °C 57.4 °F /  14.1 °C 29.9 in /  1012.8 hPa SW 5 mph /  8.0 km/h 20 mph /  32.2 km/h 46 % 0 in /  0.0 mm
11:52 79.3 °F /  26.3 °C 57.9 °F /  14.4 °C 29.9 in /  1013.1 hPa SW 13 mph /  20.9 km/h 20 mph /  32.2 km/h 48 % 0 in /  0.0 mm
11:57 78.3 °F /  25.7 °C 59.2 °F /  15.1 °C 29.9 in /  1013.1 hPa West 6 mph /  9.7 km/h 19 mph /  30.6 km/h 52 % 0 in /  0.0 mm
12:02 77.4 °F /  25.2 °C 59.4 °F /  15.2 °C 29.9 in /  1013.1 hPa SW 8 mph /  12.9 km/h 19 mph /  30.6 km/h 54 % 0 in /  0.0 mm
12:12 76.8 °F /  24.9 °C 59.9 °F /  15.5 °C 29.9 in /  1013.1 hPa SW 4 mph /  6.4 km/h 14 mph /  22.5 km/h 56 % 0 in /  0.0 mm
12:17 76.6 °F /  24.8 °C 59.7 °F /  15.4 °C 29.9 in /  1013.1 hPa West 8 mph /  12.9 km/h 12 mph /  19.3 km/h 56 % 0 in /  0.0 mm
12:27 75.9 °F /  24.4 °C 61 °F /  16.1 °C 29.9 in /  1013.1 hPa WNW 4 mph /  6.4 km/h 12 mph /  19.3 km/h 60 % 0 in /  0.0 mm
12:32 75.7 °F /  24.3 °C 62.2 °F /  16.8 °C 29.9 in /  1013.1 hPa Calm   12 mph /  19.3 km/h 63 % 0 in /  0.0 mm
12:37 75.9 °F /  24.4 °C 62.4 °F /  16.9 °C 29.9 in /  1013.1 hPa NNW 1 mph /  1.6 km/h 9 mph /  14.5 km/h 63 % 0 in /  0.0 mm
12:42 76.3 °F /  24.6 °C 63.1 °F /  17.3 °C 29.9 in /  1012.8 hPa NNW 3 mph /  4.8 km/h 9 mph /  14.5 km/h 64 % 0 in /  0.0 mm
12:47 76.5 °F /  24.7 °C 62.4 °F /  16.9 °C 29.9 in /  1012.8 hPa NNW 3 mph /  4.8 km/h 5 mph /  8.0 km/h 62 % 0 in /  0.0 mm
12:52 76.8 °F /  24.9 °C 62.4 °F /  16.9 °C 29.9 in /  1012.8 hPa WNW 3 mph /  4.8 km/h 5 mph /  8.0 km/h 61 % 0 in /  0.0 mm
13:02 77.5 °F /  25.3 °C 62.6 °F /  17.0 °C 29.9 in /  1013.1 hPa Calm   4 mph /  6.4 km/h 60 % 0 in /  0.0 mm
13:07 77.9 °F /  25.5 °C 61.9 °F /  16.6 °C 29.9 in /  1013.1 hPa West 2 mph /  3.2 km/h 5 mph /  8.0 km/h 58 % 0 in /  0.0 mm
13:12 78.3 °F /  25.7 °C 62.8 °F /  17.1 °C 29.9 in /  1012.8 hPa Calm   5 mph /  8.0 km/h 59 % 0 in /  0.0 mm
13:17 79.2 °F /  26.2 °C 62.1 °F /  16.7 °C 29.9 in /  1012.8 hPa WSW 2 mph /  3.2 km/h 5 mph /  8.0 km/h 56 % 0 in /  0.0 mm
13:22 79.5 °F /  26.4 °C 61.3 °F /  16.3 °C 29.9 in /  1012.8 hPa SW 2 mph /  3.2 km/h 5 mph /  8.0 km/h 54 % 0 in /  0.0 mm
13:32 79.5 °F /  26.4 °C 60.8 °F /  16.0 °C 29.9 in /  1012.8 hPa West 2 mph /  3.2 km/h 5 mph /  8.0 km/h 53 % 0 in /  0.0 mm
13:37 79.7 °F /  26.5 °C 61.5 °F /  16.4 °C 29.9 in /  1012.8 hPa SSW 3 mph /  4.8 km/h 5 mph /  8.0 km/h 54 % 0 in /  0.0 mm
13:42 79.9 °F /  26.6 °C 61.2 °F /  16.2 °C 29.9 in /  1012.8 hPa SW 5 mph /  8.0 km/h 6 mph /  9.7 km/h 53 % 0 in /  0.0 mm
13:47 80.1 °F /  26.7 °C 61.3 °F /  16.3 °C 29.9 in /  1012.8 hPa West 4 mph /  6.4 km/h 6 mph /  9.7 km/h 53 % 0 in /  0.0 mm
13:52 81 °F /  27.2 °C 62.2 °F /  16.8 °C 29.9 in /  1012.8 hPa SW 1 mph /  1.6 km/h 6 mph /  9.7 km/h 53 % 0 in /  0.0 mm
13:57 81.3 °F /  27.4 °C 61.5 °F /  16.4 °C 29.9 in /  1012.4 hPa WSW 2 mph /  3.2 km/h 5 mph /  8.0 km/h 51 % 0 in /  0.0 mm
14:02 81.7 °F /  27.6 °C 61.2 °F /  16.2 °C 29.9 in /  1012.4 hPa SSW 1 mph /  1.6 km/h 5 mph /  8.0 km/h 50 % 0 in /  0.0 mm
14:12 82.9 °F /  28.3 °C 61.2 °F /  16.2 °C 29.9 in /  1012.4 hPa SW 1 mph /  1.6 km/h 6 mph /  9.7 km/h 48 % 0 in /  0.0 mm
14:17 83.3 °F /  28.5 °C 61.5 °F /  16.4 °C 29.9 in /  1012.1 hPa Calm   2 mph /  3.2 km/h 48 % 0 in /  0.0 mm
14:22 84 °F /  28.9 °C 61.7 °F /  16.5 °C 29.9 in /  1012.1 hPa Calm   2 mph /  3.2 km/h 47 % 0 in /  0.0 mm
14:27 83.8 °F /  28.8 °C 62.1 °F /  16.7 °C 29.9 in /  1012.4 hPa Calm   2 mph /  3.2 km/h 48 % 0 in /  0.0 mm
14:32 83.3 °F /  28.5 °C 62.1 °F /  16.7 °C 29.9 in /  1012.1 hPa SW 2 mph /  3.2 km/h 2 mph /  3.2 km/h 49 % 0 in /  0.0 mm
14:37 83.3 °F /  28.5 °C 62.8 °F /  17.1 °C 29.9 in /  1012.1 hPa WSW 1 mph /  1.6 km/h 2 mph /  3.2 km/h 50 % 0 in /  0.0 mm
14:42 83.3 °F /  28.5 °C 61.5 °F /  16.4 °C 29.9 in /  1012.1 hPa West 2 mph /  3.2 km/h 4 mph /  6.4 km/h 48 % 0 in /  0.0 mm
14:47 83.8 °F /  28.8 °C 62.1 °F /  16.7 °C 29.9 in /  1012.1 hPa Calm   4 mph /  6.4 km/h 48 % 0 in /  0.0 mm
14:52 84 °F /  28.9 °C 61.7 °F /  16.5 °C 29.9 in /  1011.7 hPa SE 3 mph /  4.8 km/h 4 mph /  6.4 km/h 47 % 0 in /  0.0 mm
14:57 84.6 °F /  29.2 °C 61.5 °F /  16.4 °C 29.9 in /  1011.7 hPa SSE 2 mph /  3.2 km/h 4 mph /  6.4 km/h 46 % 0 in /  0.0 mm
15:02 84.9 °F /  29.4 °C 60.6 °F /  15.9 °C 29.9 in /  1011.7 hPa SW 2 mph /  3.2 km/h 4 mph /  6.4 km/h 44 % 0 in /  0.0 mm
15:07 85.3 °F /  29.6 °C 61.5 °F /  16.4 °C 29.9 in /  1011.7 hPa WSW 2 mph /  3.2 km/h 4 mph /  6.4 km/h 45 % 0 in /  0.0 mm
15:12 85.6 °F /  29.8 °C 61.2 °F /  16.2 °C 29.9 in /  1011.7 hPa SSW 2 mph /  3.2 km/h 8 mph /  12.9 km/h 44 % 0 in /  0.0 mm
15:17 85.6 °F /  29.8 °C 59.9 °F /  15.5 °C 29.9 in /  1011.7 hPa SW 6 mph /  9.7 km/h 12 mph /  19.3 km/h 42 % 0 in /  0.0 mm
15:22 85.3 °F /  29.6 °C 59.5 °F /  15.3 °C 29.9 in /  1011.7 hPa SW 6 mph /  9.7 km/h 14 mph /  22.5 km/h 42 % 0 in /  0.0 mm
15:32 85.6 °F /  29.8 °C 59.2 °F /  15.1 °C 29.9 in /  1011.7 hPa West 9 mph /  14.5 km/h 14 mph /  22.5 km/h 41 % 0 in /  0.0 mm
15:42 85.5 °F /  29.7 °C 59.7 °F /  15.4 °C 29.9 in /  1011.7 hPa SW 5 mph /  8.0 km/h 11 mph /  17.7 km/h 42 % 0 in /  0.0 mm
15:47 85.8 °F /  29.9 °C 60.1 °F /  15.6 °C 29.9 in /  1011.7 hPa SW 4 mph /  6.4 km/h 11 mph /  17.7 km/h 42 % 0 in /  0.0 mm
15:52 86.4 °F /  30.2 °C 60.6 °F /  15.9 °C 29.9 in /  1011.7 hPa WSW 5 mph /  8.0 km/h 11 mph /  17.7 km/h 42 % 0 in /  0.0 mm
16:02 86.5 °F /  30.3 °C 60.8 °F /  16.0 °C 29.9 in /  1011.7 hPa SSW 7 mph /  11.3 km/h 11 mph /  17.7 km/h 42 % 0 in /  0.0 mm
16:07 86.4 °F /  30.2 °C 61.2 °F /  16.2 °C 29.9 in /  1011.4 hPa SW 13 mph /  20.9 km/h 13 mph /  20.9 km/h 43 % 0 in /  0.0 mm
16:12 86 °F /  30.0 °C 61.5 °F /  16.4 °C 29.9 in /  1011.4 hPa SSW 6 mph /  9.7 km/h 13 mph /  20.9 km/h 44 % 0 in /  0.0 mm
16:17 85.8 °F /  29.9 °C 60.8 °F /  16.0 °C 29.9 in /  1011.4 hPa SSW 3 mph /  4.8 km/h 13 mph /  20.9 km/h 43 % 0 in /  0.0 mm
16:22 85.6 °F /  29.8 °C 61.2 °F /  16.2 °C 29.9 in /  1011.4 hPa SW 4 mph /  6.4 km/h 13 mph /  20.9 km/h 44 % 0 in /  0.0 mm
16:32 85.8 °F /  29.9 °C 60.1 °F /  15.6 °C 29.9 in /  1011.1 hPa West 11 mph /  17.7 km/h 13 mph /  20.9 km/h 42 % 0 in /  0.0 mm
16:42 85.6 °F /  29.8 °C 59.2 °F /  15.1 °C 29.9 in /  1011.4 hPa South 5 mph /  8.0 km/h 14 mph /  22.5 km/h 41 % 0 in /  0.0 mm
16:47 85.3 °F /  29.6 °C 59 °F /  15.0 °C 29.9 in /  1011.4 hPa WSW 10 mph /  16.1 km/h 14 mph /  22.5 km/h 41 % 0 in /  0.0 mm
16:52 84.6 °F /  29.2 °C 59 °F /  15.0 °C 29.9 in /  1011.7 hPa West 12 mph /  19.3 km/h 16 mph /  25.7 km/h 42 % 0 in /  0.0 mm
17:02 83.3 °F /  28.5 °C 58.5 °F /  14.7 °C 29.9 in /  1012.1 hPa WSW 15 mph /  24.1 km/h 16 mph /  25.7 km/h 43 % 0 in /  0.0 mm
17:12 81.7 °F /  27.6 °C 60.1 °F /  15.6 °C 29.9 in /  1012.1 hPa WSW 10 mph /  16.1 km/h 16 mph /  25.7 km/h 48 % 0 in /  0.0 mm
17:17 80.8 °F /  27.1 °C 61 °F /  16.1 °C 29.9 in /  1012.1 hPa SW 8 mph /  12.9 km/h 16 mph /  25.7 km/h 51 % 0 in /  0.0 mm
17:22 80.2 °F /  26.8 °C 61 °F /  16.1 °C 29.9 in /  1012.1 hPa SW 8 mph /  12.9 km/h 14 mph /  22.5 km/h 52 % 0 in /  0.0 mm
17:32 79.3 °F /  26.3 °C 61.7 °F /  16.5 °C 29.9 in /  1011.7 hPa West 4 mph /  6.4 km/h 13 mph /  20.9 km/h 55 % 0 in /  0.0 mm
17:37 79 °F /  26.1 °C 61.9 °F /  16.6 °C 29.9 in /  1011.7 hPa WSW 7 mph /  11.3 km/h 13 mph /  20.9 km/h 56 % 0 in /  0.0 mm
17:42 79 °F /  26.1 °C 61.9 °F /  16.6 °C 29.9 in /  1011.7 hPa SW 3 mph /  4.8 km/h 11 mph /  17.7 km/h 56 % 0 in /  0.0 mm
17:47 79 °F /  26.1 °C 61.9 °F /  16.6 °C 29.9 in /  1011.7 hPa WSW 8 mph /  12.9 km/h 11 mph /  17.7 km/h 56 % 0 in /  0.0 mm
17:52 78.8 °F /  26.0 °C 62.2 °F /  16.8 °C 29.9 in /  1011.7 hPa WSW 8 mph /  12.9 km/h 10 mph /  16.1 km/h 57 % 0 in /  0.0 mm
17:57 78.8 °F /  26.0 °C 62.2 °F /  16.8 °C 29.9 in /  1011.7 hPa SW 9 mph /  14.5 km/h 11 mph /  17.7 km/h 57 % 0 in /  0.0 mm
18:02 79 °F /  26.1 °C 63 °F /  17.2 °C 29.9 in /  1011.7 hPa West 5 mph /  8.0 km/h 11 mph /  17.7 km/h 58 % 0 in /  0.0 mm
18:07 79 °F /  26.1 °C 62.4 °F /  16.9 °C 29.9 in /  1011.4 hPa West 4 mph /  6.4 km/h 13 mph /  20.9 km/h 57 % 0 in /  0.0 mm
18:12 79 °F /  26.1 °C 63 °F /  17.2 °C 29.9 in /  1011.4 hPa West 2 mph /  3.2 km/h 12 mph /  19.3 km/h 58 % 0 in /  0.0 mm
18:17 79.2 °F /  26.2 °C 62.1 °F /  16.7 °C 29.9 in /  1011.4 hPa WSW 5 mph /  8.0 km/h 12 mph /  19.3 km/h 56 % 0 in /  0.0 mm
18:22 79 °F /  26.1 °C 62.4 °F /  16.9 °C 29.9 in /  1011.4 hPa SW 9 mph /  14.5 km/h 12 mph /  19.3 km/h 57 % 0 in /  0.0 mm
18:27 79 °F /  26.1 °C 62.4 °F /  16.9 °C 29.9 in /  1011.4 hPa SW 9 mph /  14.5 km/h 12 mph /  19.3 km/h 57 % 0 in /  0.0 mm
18:32 78.4 °F /  25.8 °C 62.4 °F /  16.9 °C 29.9 in /  1011.7 hPa South 5 mph /  8.0 km/h 17 mph /  27.4 km/h 58 % 0 in /  0.0 mm
18:42 77.2 °F /  25.1 °C 62.6 °F /  17.0 °C 29.9 in /  1011.7 hPa SSW 4 mph /  6.4 km/h 18 mph /  29.0 km/h 61 % 0 in /  0.0 mm
18:52 75.6 °F /  24.2 °C 64.2 °F /  17.9 °C 29.9 in /  1011.7 hPa WSW 9 mph /  14.5 km/h 15 mph /  24.1 km/h 68 % 0.01 in /  0.3 mm
18:57 74.7 °F /  23.7 °C 64.2 °F /  17.9 °C 29.9 in /  1011.7 hPa West 5 mph /  8.0 km/h 15 mph /  24.1 km/h 70 % 0.01 in /  0.3 mm
19:02 74.3 °F /  23.5 °C 64.8 °F /  18.2 °C 29.9 in /  1011.7 hPa WSW 2 mph /  3.2 km/h 15 mph /  24.1 km/h 72 % 0.01 in /  0.3 mm
19:07 73.9 °F /  23.3 °C 64.8 °F /  18.2 °C 29.9 in /  1011.7 hPa SW 3 mph /  4.8 km/h 11 mph /  17.7 km/h 73 % 0.01 in /  0.3 mm
19:12 73.9 °F /  23.3 °C 64.8 °F /  18.2 °C 29.9 in /  1011.7 hPa WSW 3 mph /  4.8 km/h 10 mph /  16.1 km/h 73 % 0.01 in /  0.3 mm
19:17 73.9 °F /  23.3 °C 64.8 °F /  18.2 °C 29.9 in /  1011.7 hPa SW 5 mph /  8.0 km/h 10 mph /  16.1 km/h 73 % 0.01 in /  0.3 mm
19:22 73.8 °F /  23.2 °C 64.6 °F /  18.1 °C 29.9 in /  1011.7 hPa SW 3 mph /  4.8 km/h 10 mph /  16.1 km/h 73 % 0.01 in /  0.3 mm
19:27 73.9 °F /  23.3 °C 64.4 °F /  18.0 °C 29.9 in /  1011.4 hPa West 7 mph /  11.3 km/h 11 mph /  17.7 km/h 72 % 0.01 in /  0.3 mm
19:32 74.1 °F /  23.4 °C 64.9 °F /  18.3 °C 29.9 in /  1011.4 hPa SW 7 mph /  11.3 km/h 11 mph /  17.7 km/h 73 % 0.01 in /  0.3 mm
19:42 74.3 °F /  23.5 °C 65.1 °F /  18.4 °C 29.9 in /  1011.7 hPa WSW 3 mph /  4.8 km/h 10 mph /  16.1 km/h 73 % 0.01 in /  0.3 mm
19:47 74.5 °F /  23.6 °C 65.3 °F /  18.5 °C 29.9 in /  1011.7 hPa SW 7 mph /  11.3 km/h 7 mph /  11.3 km/h 73 % 0 in /  0.0 mm
19:57 74.5 °F /  23.6 °C 65.3 °F /  18.5 °C 29.9 in /  1011.7 hPa SW 5 mph /  8.0 km/h 10 mph /  16.1 km/h 73 % 0 in /  0.0 mm
20:02 74.5 °F /  23.6 °C 65.7 °F /  18.7 °C 29.9 in /  1011.7 hPa SW 5 mph /  8.0 km/h 10 mph /  16.1 km/h 74 % 0 in /  0.0 mm
20:07 74.5 °F /  23.6 °C 65.7 °F /  18.7 °C 29.9 in /  1011.7 hPa SW 4 mph /  6.4 km/h 10 mph /  16.1 km/h 74 % 0 in /  0.0 mm
20:12 74.5 °F /  23.6 °C 65.7 °F /  18.7 °C 29.9 in /  1011.7 hPa SSW 3 mph /  4.8 km/h 10 mph /  16.1 km/h 74 % 0 in /  0.0 mm
20:17 74.7 °F /  23.7 °C 65.8 °F /  18.8 °C 29.9 in /  1012.1 hPa SW 7 mph /  11.3 km/h 11 mph /  17.7 km/h 74 % 0 in /  0.0 mm
20:22 74.7 °F /  23.7 °C 65.5 °F /  18.6 °C 29.9 in /  1011.7 hPa West 3 mph /  4.8 km/h 11 mph /  17.7 km/h 73 % 0 in /  0.0 mm
20:32 74.7 °F /  23.7 °C 65.8 °F /  18.8 °C 29.9 in /  1012.1 hPa SW 3 mph /  4.8 km/h 11 mph /  17.7 km/h 74 % 0 in /  0.0 mm
20:37 74.5 °F /  23.6 °C 66 °F /  18.9 °C 29.9 in /  1012.1 hPa WSW 4 mph /  6.4 km/h 8 mph /  12.9 km/h 75 % 0 in /  0.0 mm
20:42 74.5 °F /  23.6 °C 66 °F /  18.9 °C 29.9 in /  1012.4 hPa WSW 3 mph /  4.8 km/h 8 mph /  12.9 km/h 75 % 0 in /  0.0 mm
20:47 74.3 °F /  23.5 °C 66.2 °F /  19.0 °C 29.9 in /  1012.4 hPa SW 5 mph /  8.0 km/h 8 mph /  12.9 km/h 76 % 0 in /  0.0 mm
20:52 74.3 °F /  23.5 °C 66.2 °F /  19.0 °C 29.9 in /  1012.4 hPa SSW 5 mph /  8.0 km/h 8 mph /  12.9 km/h 76 % 0 in /  0.0 mm
20:57 74.3 °F /  23.5 °C 66.2 °F /  19.0 °C 29.9 in /  1012.4 hPa WSW 3 mph /  4.8 km/h 8 mph /  12.9 km/h 76 % 0 in /  0.0 mm
21:02 74.1 °F /  23.4 °C 66 °F /  18.9 °C 29.9 in /  1012.8 hPa SW 3 mph /  4.8 km/h 8 mph /  12.9 km/h 76 % 0 in /  0.0 mm
21:07 74.1 °F /  23.4 °C 66.4 °F /  19.1 °C 29.9 in /  1012.8 hPa SW 3 mph /  4.8 km/h 8 mph /  12.9 km/h 77 % 0 in /  0.0 mm
21:12 73.9 °F /  23.3 °C 66.6 °F /  19.2 °C 29.9 in /  1012.8 hPa SW 1 mph /  1.6 km/h 8 mph /  12.9 km/h 78 % 0 in /  0.0 mm
21:17 73.8 °F /  23.2 °C 66.4 °F /  19.1 °C 29.9 in /  1012.8 hPa WSW 3 mph /  4.8 km/h 9 mph /  14.5 km/h 78 % 0 in /  0.0 mm
21:22 73.2 °F /  22.9 °C 66.4 °F /  19.1 °C 29.9 in /  1012.8 hPa SW 2 mph /  3.2 km/h 9 mph /  14.5 km/h 79 % 0 in /  0.0 mm
21:27 72.9 °F /  22.7 °C 66.4 °F /  19.1 °C 29.9 in /  1012.4 hPa WSW 3 mph /  4.8 km/h 9 mph /  14.5 km/h 80 % 0 in /  0.0 mm
21:32 72.7 °F /  22.6 °C 66.2 °F /  19.0 °C 29.9 in /  1012.4 hPa West 1 mph /  1.6 km/h 9 mph /  14.5 km/h 80 % 0 in /  0.0 mm
21:42 72 °F /  22.2 °C 65.8 °F /  18.8 °C 29.9 in /  1012.4 hPa WNW 3 mph /  4.8 km/h 6 mph /  9.7 km/h 81 % 0 in /  0.0 mm
21:47 71.8 °F /  22.1 °C 65.7 °F /  18.7 °C 29.9 in /  1012.4 hPa WNW 5 mph /  8.0 km/h 7 mph /  11.3 km/h 81 % 0 in /  0.0 mm
21:52 71.8 °F /  22.1 °C 65.7 °F /  18.7 °C 29.9 in /  1012.4 hPa West 1 mph /  1.6 km/h 7 mph /  11.3 km/h 81 % 0 in /  0.0 mm
21:57 71.4 °F /  21.9 °C 65.7 °F /  18.7 °C 29.9 in /  1012.4 hPa WNW 2 mph /  3.2 km/h 7 mph /  11.3 km/h 82 % 0 in /  0.0 mm
22:02 71.2 °F /  21.8 °C 65.5 °F /  18.6 °C 29.9 in /  1012.4 hPa WSW 2 mph /  3.2 km/h 7 mph /  11.3 km/h 82 % 0 in /  0.0 mm
22:12 71.1 °F /  21.7 °C 65.7 °F /  18.7 °C 29.9 in /  1012.4 hPa WSW 1 mph /  1.6 km/h 4 mph /  6.4 km/h 83 % 0 in /  0.0 mm
22:17 70.9 °F /  21.6 °C 65.5 °F /  18.6 °C 29.9 in /  1012.8 hPa Calm   4 mph /  6.4 km/h 83 % 0 in /  0.0 mm
22:22 70.7 °F /  21.5 °C 65.7 °F /  18.7 °C 29.9 in /  1012.8 hPa WSW 1 mph /  1.6 km/h 4 mph /  6.4 km/h 84 % 0 in /  0.0 mm
22:32 70.7 °F /  21.5 °C 65.7 °F /  18.7 °C 29.9 in /  1012.8 hPa Calm   3 mph /  4.8 km/h 84 % 0 in /  0.0 mm
22:42 70.3 °F /  21.3 °C 65.3 °F /  18.5 °C 29.9 in /  1012.8 hPa SSW 2 mph /  3.2 km/h 4 mph /  6.4 km/h 84 % 0 in /  0.0 mm
22:52 69.8 °F /  21.0 °C 65.5 °F /  18.6 °C 29.9 in /  1012.8 hPa SW 2 mph /  3.2 km/h 4 mph /  6.4 km/h 86 % 0 in /  0.0 mm
22:57 69.8 °F /  21.0 °C 65.5 °F /  18.6 °C 29.9 in /  1012.8 hPa WSW 1 mph /  1.6 km/h 4 mph /  6.4 km/h 86 % 0 in /  0.0 mm
23:02 70.2 °F /  21.2 °C 65.8 °F /  18.8 °C 29.9 in /  1012.8 hPa WSW 2 mph /  3.2 km/h 4 mph /  6.4 km/h 86 % 0 in /  0.0 mm
23:07 70.5 °F /  21.4 °C 65.8 °F /  18.8 °C 29.9 in /  1012.8 hPa WSW 4 mph /  6.4 km/h 5 mph /  8.0 km/h 85 % 0 in /  0.0 mm
23:12 70.5 °F /  21.4 °C 65.8 °F /  18.8 °C 29.9 in /  1013.1 hPa WSW 5 mph /  8.0 km/h 6 mph /  9.7 km/h 85 % 0 in /  0.0 mm
23:17 70.5 °F /  21.4 °C 65.8 °F /  18.8 °C 29.9 in /  1012.8 hPa West 5 mph /  8.0 km/h 6 mph /  9.7 km/h 85 % 0 in /  0.0 mm
23:22 70.5 °F /  21.4 °C 65.8 °F /  18.8 °C 29.9 in /  1013.1 hPa SW 4 mph /  6.4 km/h 7 mph /  11.3 km/h 85 % 0 in /  0.0 mm
23:32 70.3 °F /  21.3 °C 65.7 °F /  18.7 °C 29.9 in /  1013.1 hPa West 2 mph /  3.2 km/h 7 mph /  11.3 km/h 85 % 0 in /  0.0 mm
23:42 69.6 °F /  20.9 °C 65.3 °F /  18.5 °C 29.9 in /  1013.1 hPa SSW 4 mph /  6.4 km/h 6 mph /  9.7 km/h 86 % 0 in /  0.0 mm
23:47 69.4 °F /  20.8 °C 65.5 °F /  18.6 °C 29.9 in /  1013.1 hPa WSW 2 mph /  3.2 km/h 5 mph /  8.0 km/h 87 % 0 in /  0.0 mm
23:52 69.4 °F /  20.8 °C 65.5 °F /  18.6 °C 29.9 in /  1013.4 hPa SSE 2 mph /  3.2 km/h 7 mph /  11.3 km/h 87 % 0 in /  0.0 mm
23:57 69.3 °F /  20.7 °C 65.3 °F /  18.5 °C 29.9 in /  1013.4 hPa SW 2 mph /  3.2 km/h 7 mph /  11.3 km/h 87 % 0 in /  0.0 mm
Meteo18
Compliments of Weather Underground - 4 mb

Script developed by  Jim McMurry - jmcmurry@mwt.net Adapted for the template by  Wim van der Kuil - Leuven-Template.eu

You find our weather info also at:

European Weather Network

Weather Underground

Equipment we use:

Weather-station
Davis Vue

Weather-program
Meteohub

Weather-server
Raspberry PI 2 B+

Provider
1 and 1

Davis Vue

Meteohub

Raspberry PI 2 B+

1 and 1